createdAt,value
2018-02-18T00:00:18.164Z,28.98
2018-02-18T00:02:45.696Z,29.33
2018-02-18T00:05:13.333Z,31.33
2018-02-18T00:07:40.807Z,28.60
2018-02-18T00:10:08.279Z,29.33
2018-02-18T00:12:35.748Z,30.62
2018-02-18T00:15:05.036Z,25.25
2018-02-18T00:17:32.537Z,24.92
2018-02-18T00:19:59.986Z,29.10
2018-02-18T00:22:27.685Z,29.63
2018-02-18T00:24:55.158Z,29.70
2018-02-18T00:27:22.618Z,25.83
2018-02-18T00:29:50.120Z,30.33
2018-02-18T00:32:17.729Z,27.20
2018-02-18T00:34:45.315Z,28.87
2018-02-18T00:37:12.898Z,28.67
2018-02-18T00:39:40.358Z,27.55
2018-02-18T00:42:11.957Z,26.65
2018-02-18T00:44:42.497Z,26.40
2018-02-18T00:47:09.974Z,29.08
2018-02-18T00:49:37.506Z,27.50
2018-02-18T00:52:05.502Z,26.62
2018-02-18T00:54:32.985Z,25.05
2018-02-18T00:57:00.650Z,28.52
2018-02-18T00:59:28.268Z,28.10
2018-02-18T01:01:55.775Z,24.87
2018-02-18T01:04:23.351Z,23.17
2018-02-18T01:06:50.807Z,26.25
2018-02-18T01:09:18.310Z,26.02
2018-02-18T01:11:45.833Z,26.00
2018-02-18T01:14:13.292Z,27.37
2018-02-18T01:16:40.864Z,24.50
2018-02-18T01:19:08.498Z,21.95
2018-02-18T01:21:36.898Z,28.30
2018-02-18T01:24:04.576Z,24.95
2018-02-18T01:26:34.524Z,25.42
2018-02-18T01:29:02.051Z,26.25
2018-02-18T01:31:29.509Z,28.80
2018-02-18T01:33:56.986Z,28.12
2018-02-18T01:36:24.448Z,26.73
2018-02-18T01:38:51.935Z,31.90
2018-02-18T01:41:19.387Z,27.70
2018-02-18T01:43:46.851Z,26.23
2018-02-18T01:46:14.305Z,30.23
2018-02-18T01:48:41.776Z,28.23
2018-02-18T01:51:09.226Z,30.88
2018-02-18T01:53:36.719Z,30.92
2018-02-18T01:56:04.211Z,32.38
2018-02-18T01:58:31.667Z,29.08
2018-02-18T02:00:59.129Z,30.25
2018-02-18T02:03:26.597Z,28.48
2018-02-18T02:05:54.100Z,26.92
2018-02-18T02:08:21.552Z,26.10
2018-02-18T02:10:49.027Z,26.42
2018-02-18T02:13:16.479Z,30.48
2018-02-18T02:15:43.980Z,28.25
2018-02-18T02:18:11.441Z,32.80
2018-02-18T02:20:38.950Z,31.12
2018-02-18T02:23:06.491Z,30.20
2018-02-18T02:25:33.961Z,27.10
2018-02-18T02:28:01.429Z,28.55
2018-02-18T02:30:28.931Z,28.58
2018-02-18T02:32:56.396Z,25.40
2018-02-18T02:35:23.857Z,24.48
2018-02-18T02:37:51.336Z,30.73
2018-02-18T02:40:18.788Z,28.52
2018-02-18T02:42:46.229Z,23.70
2018-02-18T02:45:13.683Z,31.62
2018-02-18T02:47:42.136Z,31.50
2018-02-18T02:50:09.608Z,26.62
2018-02-18T02:52:37.079Z,26.85
2018-02-18T02:55:04.550Z,33.08
2018-02-18T02:57:33.975Z,28.55
2018-02-18T03:00:01.483Z,29.23
2018-02-18T03:02:28.938Z,28.33
2018-02-18T03:04:56.390Z,30.37
2018-02-18T03:07:23.887Z,28.17
2018-02-18T03:09:51.342Z,25.33
2018-02-18T03:12:18.791Z,28.92
2018-02-18T03:14:46.256Z,31.27
2018-02-18T03:17:13.713Z,28.23
2018-02-18T03:19:41.194Z,29.02
2018-02-18T03:22:08.644Z,29.10
2018-02-18T03:24:36.107Z,29.77
2018-02-18T03:27:03.559Z,32.97
2018-02-18T03:29:31.556Z,27.83
2018-02-18T03:31:59.011Z,27.75
2018-02-18T03:34:26.481Z,28.48
2018-02-18T03:36:53.938Z,27.85
2018-02-18T03:39:21.396Z,25.40
2018-02-18T03:41:48.848Z,24.98
2018-02-18T03:44:16.297Z,25.90
2018-02-18T03:46:43.749Z,25.75
2018-02-18T03:49:12.224Z,25.45
2018-02-18T03:51:39.689Z,26.48
2018-02-18T03:54:07.144Z,29.00
2018-02-18T03:56:34.582Z,31.15
2018-02-18T03:59:02.063Z,25.73
2018-02-18T04:01:29.528Z,27.10
2018-02-18T04:03:56.983Z,37.10
2018-02-18T04:06:24.453Z,23.73
2018-02-18T04:08:51.906Z,25.98
2018-02-18T04:11:19.368Z,29.25
2018-02-18T04:13:46.856Z,24.33
2018-02-18T04:16:14.306Z,27.33
2018-02-18T04:18:41.772Z,26.35
2018-02-18T04:21:09.214Z,30.58
2018-02-18T04:23:36.676Z,26.20
2018-02-18T04:26:04.129Z,27.23
2018-02-18T04:28:31.595Z,31.02
2018-02-18T04:30:59.042Z,25.33
2018-02-18T04:33:26.503Z,28.27
2018-02-18T04:35:53.948Z,23.02
2018-02-18T04:38:21.416Z,26.62
2018-02-18T04:40:48.878Z,29.60
2018-02-18T04:43:16.332Z,31.20
2018-02-18T04:45:43.817Z,32.20
2018-02-18T04:48:11.303Z,34.65
2018-02-18T04:50:38.746Z,29.17
2018-02-18T04:53:06.212Z,22.85
2018-02-18T04:55:33.683Z,32.75
2018-02-18T04:58:01.152Z,29.08
2018-02-18T05:00:28.616Z,42.53
2018-02-18T05:02:56.075Z,32.40
2018-02-18T05:05:23.526Z,25.15
2018-02-18T05:07:50.986Z,29.23
2018-02-18T05:10:18.442Z,31.92
2018-02-18T05:12:45.898Z,34.20
2018-02-18T05:15:13.347Z,23.62
2018-02-18T05:17:40.812Z,25.77
2018-02-18T05:20:08.264Z,26.27
2018-02-18T05:22:35.727Z,25.50
2018-02-18T05:25:03.247Z,19.77
2018-02-18T05:27:30.694Z,23.87
2018-02-18T05:29:59.202Z,24.05
2018-02-18T05:32:26.688Z,26.52
2018-02-18T05:34:54.130Z,25.12
2018-02-18T05:37:21.590Z,27.20
2018-02-18T05:39:49.052Z,32.78
2018-02-18T05:42:16.509Z,21.87
2018-02-18T05:44:43.967Z,23.12
2018-02-18T05:47:11.424Z,25.95
2018-02-18T05:49:38.883Z,26.45
2018-02-18T05:52:06.338Z,27.73
2018-02-18T05:54:33.796Z,21.08
2018-02-18T05:57:01.253Z,30.20
2018-02-18T05:59:28.721Z,26.85
2018-02-18T06:01:56.194Z,28.17
2018-02-18T06:04:23.706Z,23.42
2018-02-18T06:06:51.166Z,24.77
2018-02-18T06:09:18.634Z,24.92
2018-02-18T06:11:46.089Z,27.45
2018-02-18T06:14:13.536Z,25.10
2018-02-18T06:16:41.032Z,25.08
2018-02-18T06:19:08.482Z,24.60
2018-02-18T06:21:35.940Z,24.67
2018-02-18T06:24:03.390Z,26.12
2018-02-18T06:26:30.846Z,21.90
2018-02-18T06:28:58.303Z,22.95
2018-02-18T06:31:25.763Z,23.70
2018-02-18T06:33:53.252Z,20.88
2018-02-18T06:36:20.704Z,20.37
2018-02-18T06:38:48.144Z,25.08
2018-02-18T06:41:15.609Z,22.70
2018-02-18T06:43:43.061Z,20.48
2018-02-18T06:46:10.530Z,23.98
2018-02-18T06:48:37.982Z,20.25
2018-02-18T06:51:05.431Z,21.00
2018-02-18T06:53:32.891Z,19.60
2018-02-18T06:56:00.370Z,20.48
2018-02-18T06:58:27.848Z,19.23
2018-02-18T07:00:55.299Z,23.23
2018-02-18T07:03:22.759Z,20.33
2018-02-18T07:05:50.200Z,23.77
2018-02-18T07:08:17.674Z,22.75
2018-02-18T07:10:45.129Z,20.67
2018-02-18T07:13:12.587Z,20.50
2018-02-18T07:15:40.047Z,19.10
2018-02-18T07:18:07.538Z,21.85
2018-02-18T07:20:35.010Z,19.37
2018-02-18T07:23:02.476Z,19.42
2018-02-18T07:25:29.980Z,20.00
2018-02-18T07:27:57.461Z,22.05
2018-02-18T07:30:24.924Z,21.73
2018-02-18T07:32:52.373Z,19.87
2018-02-18T07:35:19.837Z,20.37
2018-02-18T07:37:47.293Z,25.90
2018-02-18T07:40:14.752Z,26.25
2018-02-18T07:42:42.208Z,20.17
2018-02-18T07:45:10.036Z,21.83
2018-02-18T07:47:37.490Z,18.90
2018-02-18T07:50:04.952Z,21.33
2018-02-18T07:52:32.423Z,24.58
2018-02-18T07:55:00.052Z,21.55
2018-02-18T07:57:27.758Z,23.27
2018-02-18T07:59:55.201Z,25.33
2018-02-18T08:02:22.671Z,22.13
2018-02-18T08:04:50.130Z,21.12
2018-02-18T08:07:17.599Z,20.30
2018-02-18T08:09:45.063Z,23.85
2018-02-18T08:12:12.516Z,27.02
2018-02-18T08:14:39.984Z,21.02
2018-02-18T08:17:07.443Z,23.67
2018-02-18T08:19:34.902Z,23.92
2018-02-18T08:22:02.362Z,21.12
2018-02-18T08:24:29.811Z,22.48
2018-02-18T08:26:57.266Z,24.87
2018-02-18T08:29:24.826Z,24.15
2018-02-18T08:31:52.691Z,28.70
2018-02-18T08:34:20.142Z,26.60
2018-02-18T08:36:47.606Z,27.85
2018-02-18T08:39:15.116Z,25.75
2018-02-18T08:41:43.163Z,23.95
2018-02-18T08:44:10.629Z,24.90
2018-02-18T08:46:38.100Z,23.30
2018-02-18T08:49:05.572Z,28.52
2018-02-18T08:51:33.030Z,27.02
2018-02-18T08:54:00.656Z,26.40
2018-02-18T08:56:28.126Z,28.95
2018-02-18T08:58:55.653Z,23.33
2018-02-18T09:01:23.448Z,23.83
2018-02-18T09:03:50.897Z,24.25
2018-02-18T09:06:18.358Z,27.55
2018-02-18T09:08:45.806Z,26.77
2018-02-18T09:11:13.366Z,26.25
2018-02-18T09:13:40.843Z,26.83
2018-02-18T09:16:08.302Z,28.52
2018-02-18T09:18:35.766Z,29.83
2018-02-18T09:21:03.221Z,27.95
2018-02-18T09:23:31.374Z,26.52
2018-02-18T09:25:58.871Z,23.98
2018-02-18T09:28:26.333Z,29.30
2018-02-18T09:30:54.553Z,23.55
2018-02-18T09:33:22.242Z,23.58
2018-02-18T09:35:51.026Z,31.62
2018-02-18T09:38:18.492Z,34.97
2018-02-18T09:40:47.998Z,32.22
2018-02-18T09:43:17.012Z,29.52
2018-02-18T09:45:44.830Z,35.53
2018-02-18T09:48:13.699Z,27.42
2018-02-18T09:50:41.149Z,27.83
2018-02-18T09:53:08.631Z,28.20
2018-02-18T09:55:37.130Z,29.52
2018-02-18T09:58:04.587Z,27.95
2018-02-18T10:00:34.250Z,28.30
2018-02-18T10:03:01.773Z,31.67
2018-02-18T10:05:29.290Z,26.40
2018-02-18T10:07:56.722Z,26.80
2018-02-18T10:10:24.318Z,24.55
2018-02-18T10:12:51.787Z,29.55
2018-02-18T10:15:19.291Z,28.05
2018-02-18T10:17:46.883Z,30.92
2018-02-18T10:20:15.432Z,27.58
2018-02-18T10:22:42.997Z,28.40
2018-02-18T10:25:10.465Z,24.15
2018-02-18T10:27:37.951Z,24.10
2018-02-18T10:30:05.893Z,26.10
2018-02-18T10:32:33.410Z,28.60
2018-02-18T10:35:00.961Z,32.10
2018-02-18T10:37:28.433Z,35.67
2018-02-18T10:39:56.155Z,25.95
2018-02-18T10:42:23.671Z,26.25
2018-02-18T10:44:51.126Z,47.30
2018-02-18T10:47:22.278Z,35.28
2018-02-18T10:49:49.766Z,30.25
2018-02-18T10:52:17.231Z,37.85
2018-02-18T10:54:44.698Z,31.35
2018-02-18T10:57:12.340Z,28.10
2018-02-18T10:59:39.791Z,29.63
2018-02-18T11:02:07.260Z,30.35
2018-02-18T11:04:35.619Z,31.00
2018-02-18T11:07:03.192Z,28.80
2018-02-18T11:09:30.663Z,37.33
2018-02-18T11:11:58.119Z,35.00
2018-02-18T11:14:25.566Z,37.10
2018-02-18T11:16:53.043Z,31.07
2018-02-18T11:19:20.496Z,29.40
2018-02-18T11:21:47.950Z,29.87
2018-02-18T11:24:15.432Z,28.42
2018-02-18T11:26:42.925Z,32.37
2018-02-18T11:29:10.378Z,28.92
2018-02-18T11:31:37.832Z,28.40
2018-02-18T11:34:05.288Z,28.60
2018-02-18T11:36:32.751Z,27.02
2018-02-18T11:39:00.213Z,30.70
2018-02-18T11:41:27.698Z,31.70
2018-02-18T11:43:55.179Z,32.97
2018-02-18T11:46:22.639Z,28.23
2018-02-18T11:48:50.109Z,32.55
2018-02-18T11:51:17.573Z,27.42
2018-02-18T11:53:45.029Z,33.25
2018-02-18T11:56:12.519Z,29.67
2018-02-18T11:58:39.992Z,25.70
2018-02-18T12:01:07.451Z,28.90
2018-02-18T12:03:34.954Z,25.88
2018-02-18T12:06:03.480Z,23.60
2018-02-18T12:08:30.946Z,28.85
2018-02-18T12:10:58.390Z,24.40
2018-02-18T12:13:29.031Z,21.48
2018-02-18T12:15:56.745Z,17.08
2018-02-18T12:18:25.932Z,19.90
2018-02-18T12:20:53.816Z,18.70
2018-02-18T12:23:22.232Z,18.30
2018-02-18T12:25:49.696Z,17.55
2018-02-18T12:28:17.145Z,18.30
2018-02-18T12:30:44.630Z,17.25
2018-02-18T12:33:13.357Z,17.70
2018-02-18T12:35:40.863Z,17.15
2018-02-18T12:38:09.490Z,20.17
2018-02-18T12:40:37.097Z,27.95
2018-02-18T12:43:04.578Z,21.58
2018-02-18T12:45:32.038Z,23.85
2018-02-18T12:47:59.506Z,22.25
2018-02-18T12:50:27.442Z,21.50
2018-02-18T12:52:54.940Z,23.40
2018-02-18T12:55:22.396Z,21.83
2018-02-18T12:57:50.011Z,20.83
2018-02-18T13:00:17.534Z,19.95
2018-02-18T13:02:46.278Z,21.37
2018-02-18T13:05:14.901Z,22.60
2018-02-18T13:07:43.415Z,21.98
2018-02-18T13:10:10.914Z,20.80
2018-02-18T13:12:38.628Z,18.60
2018-02-18T13:15:06.769Z,20.03
2018-02-18T13:17:34.239Z,20.10
2018-02-18T13:20:01.710Z,17.67
2018-02-18T13:22:29.817Z,19.85
2018-02-18T13:24:57.294Z,19.17
2018-02-18T13:27:26.212Z,19.37
2018-02-18T13:29:54.273Z,19.02
2018-02-18T13:32:21.769Z,32.30
2018-02-18T13:34:51.431Z,19.10
2018-02-18T13:37:19.180Z,17.73
2018-02-18T13:39:46.699Z,19.90
2018-02-18T13:42:14.254Z,21.87
2018-02-18T13:44:41.744Z,19.20
2018-02-18T13:47:09.210Z,25.12
2018-02-18T13:49:37.100Z,22.25
2018-02-18T13:52:04.781Z,25.00
2018-02-18T13:54:32.306Z,19.92
2018-02-18T13:56:59.788Z,19.80
2018-02-18T13:59:27.277Z,21.55
2018-02-18T14:01:55.544Z,20.50
2018-02-18T14:04:24.284Z,20.20
2018-02-18T14:06:51.745Z,22.00
2018-02-18T14:09:19.239Z,22.08
2018-02-18T14:11:46.729Z,19.62
2018-02-18T14:14:15.022Z,20.00
2018-02-18T14:16:42.491Z,20.25
2018-02-18T14:19:09.965Z,20.73
2018-02-18T14:21:37.410Z,21.75
2018-02-18T14:24:05.341Z,23.50
2018-02-18T14:26:33.436Z,22.10
2018-02-18T14:29:00.951Z,22.80
2018-02-18T14:31:29.612Z,24.02
2018-02-18T14:33:57.172Z,21.77
2018-02-18T14:36:24.620Z,21.20
2018-02-18T14:38:53.315Z,21.80
2018-02-18T14:41:32.670Z,23.15
2018-02-18T14:44:12.119Z,22.83
2018-02-18T14:46:51.436Z,22.50
2018-02-18T14:49:30.732Z,22.15
2018-02-18T14:52:10.335Z,22.60
2018-02-18T14:57:42.457Z,20.95
2018-02-18T15:00:09.988Z,21.67
2018-02-18T15:02:37.477Z,24.15
2018-02-18T15:05:04.941Z,24.08
2018-02-18T15:07:32.446Z,23.62
2018-02-18T15:09:59.897Z,22.87
2018-02-18T15:12:27.430Z,23.10
2018-02-18T15:14:54.907Z,22.80
2018-02-18T15:17:22.396Z,23.20
2018-02-18T15:19:49.861Z,23.65
2018-02-18T15:22:17.341Z,23.23
2018-02-18T15:24:44.799Z,23.87
2018-02-18T15:27:12.250Z,22.95
2018-02-18T15:29:39.704Z,22.48
2018-02-18T15:32:07.187Z,22.92
2018-02-18T15:34:34.695Z,25.52
2018-02-18T15:37:02.155Z,23.73
2018-02-18T15:39:29.632Z,22.73
2018-02-18T15:41:57.110Z,23.55
2018-02-18T15:44:24.560Z,25.92
2018-02-18T15:46:52.115Z,27.98
2018-02-18T15:49:19.561Z,26.50
2018-02-18T15:51:47.035Z,24.52
2018-02-18T15:54:14.490Z,28.23
2018-02-18T15:56:42.031Z,26.48
2018-02-18T15:59:09.512Z,26.20
2018-02-18T16:01:36.969Z,24.27
2018-02-18T16:04:04.421Z,29.40
2018-02-18T16:06:31.901Z,25.10
2018-02-18T16:08:59.361Z,23.98
2018-02-18T16:11:26.870Z,23.65
2018-02-18T16:13:54.334Z,23.45
2018-02-18T16:16:21.832Z,24.85
2018-02-18T16:18:49.291Z,23.90
2018-02-18T16:21:16.773Z,25.48
2018-02-18T16:23:44.267Z,23.83
2018-02-18T16:26:11.723Z,24.05
2018-02-18T16:28:39.530Z,23.85
2018-02-18T16:31:07.705Z,21.60
2018-02-18T16:33:35.325Z,24.98
2018-02-18T16:36:02.843Z,25.85
2018-02-18T16:38:31.362Z,27.58
2018-02-18T16:40:59.072Z,31.67
2018-02-18T16:43:26.606Z,27.83
2018-02-18T16:45:54.077Z,25.25
2018-02-18T16:48:21.523Z,25.42
2018-02-18T16:50:48.974Z,27.80
2018-02-18T16:53:16.445Z,23.40
2018-02-18T16:55:44.266Z,27.30
2018-02-18T16:58:11.990Z,25.00
2018-02-18T17:00:39.830Z,23.52
2018-02-18T17:03:07.328Z,23.52
2018-02-18T17:05:35.312Z,23.17
2018-02-18T17:08:02.955Z,24.90
2018-02-18T17:10:30.414Z,25.08
2018-02-18T17:12:57.874Z,25.90
2018-02-18T17:15:26.432Z,23.65
2018-02-18T17:17:54.554Z,22.02
2018-02-18T17:20:22.111Z,23.02
2018-02-18T17:22:49.643Z,24.85
2018-02-18T17:25:17.906Z,25.30
2018-02-18T17:27:45.423Z,27.48
2018-02-18T17:30:13.990Z,25.00
2018-02-18T17:32:41.533Z,25.58
2018-02-18T17:35:09.005Z,30.05
2018-02-18T17:37:37.154Z,30.20
2018-02-18T17:40:07.874Z,29.77
2018-02-18T17:42:38.855Z,26.17
2018-02-18T17:45:06.514Z,24.10
2018-02-18T17:47:34.343Z,26.05
2018-02-18T17:50:01.850Z,25.00
2018-02-18T17:52:29.293Z,25.00
2018-02-18T17:54:56.768Z,26.15
2018-02-18T17:57:24.276Z,25.98
2018-02-18T17:59:51.706Z,25.08
2018-02-18T18:02:19.176Z,26.10
2018-02-18T18:04:46.619Z,26.33
2018-02-18T18:07:14.326Z,26.27
2018-02-18T18:09:41.773Z,23.08
2018-02-18T18:12:09.231Z,27.08
2018-02-18T18:14:36.747Z,27.95
2018-02-18T18:17:04.276Z,28.17
2018-02-18T18:19:31.737Z,28.17
2018-02-18T18:21:59.229Z,29.48
2018-02-18T18:24:26.694Z,29.45
2018-02-18T18:26:54.198Z,26.62
2018-02-18T18:29:21.734Z,24.85
2018-02-18T18:31:49.200Z,27.05
2018-02-18T18:34:16.865Z,26.80
2018-02-18T18:36:45.546Z,28.30
2018-02-18T18:39:13.050Z,26.73
2018-02-18T18:41:40.808Z,26.30
2018-02-18T18:44:08.681Z,25.17
2018-02-18T18:46:36.301Z,29.58
2018-02-18T18:49:03.795Z,25.85
2018-02-18T18:51:31.278Z,27.62
2018-02-18T18:53:58.734Z,26.33
2018-02-18T18:56:26.190Z,27.08
2018-02-18T18:58:54.177Z,28.60
2018-02-18T19:01:22.048Z,27.30
2018-02-18T19:03:49.918Z,28.55
2018-02-18T19:06:17.579Z,28.05
2018-02-18T19:08:45.044Z,27.25
2018-02-18T19:11:12.737Z,27.33
2018-02-18T19:13:40.378Z,22.08
2018-02-18T19:16:11.249Z,27.23
2018-02-18T19:18:38.848Z,25.35
2018-02-18T19:21:06.417Z,27.30
2018-02-18T19:23:33.870Z,26.50
2018-02-18T19:26:01.907Z,27.45
2018-02-18T19:28:29.384Z,27.15
2018-02-18T19:30:57.060Z,25.50
2018-02-18T19:33:24.529Z,24.52
2018-02-18T19:35:52.036Z,26.90
2018-02-18T19:38:22.972Z,25.55
2018-02-18T19:40:50.639Z,24.08
2018-02-18T19:43:18.423Z,28.33
2018-02-18T19:45:45.876Z,26.35
2018-02-18T19:48:13.394Z,28.42
2018-02-18T19:50:41.181Z,27.50
2018-02-18T19:53:17.565Z,24.52
2018-02-18T19:55:45.110Z,24.08
2018-02-18T19:58:12.782Z,25.27
2018-02-18T20:00:40.416Z,22.90
2018-02-18T20:03:07.990Z,22.77
2018-02-18T20:05:35.468Z,24.52
2018-02-18T20:08:08.904Z,24.00
2018-02-18T20:10:36.457Z,25.30
2018-02-18T20:13:03.898Z,23.48
2018-02-18T20:15:31.426Z,24.37
2018-02-18T20:17:58.990Z,23.62
2018-02-18T20:20:26.896Z,25.90
2018-02-18T20:22:59.692Z,25.85
2018-02-18T20:25:27.431Z,26.27
2018-02-18T20:27:55.072Z,23.50
2018-02-18T20:30:23.538Z,23.75
2018-02-18T20:32:50.995Z,24.37
2018-02-18T20:35:18.972Z,24.00
2018-02-18T20:37:47.101Z,24.35
2018-02-18T20:40:14.703Z,23.80
2018-02-18T20:42:42.158Z,23.62
2018-02-18T20:45:11.717Z,22.15
2018-02-18T20:47:39.163Z,24.52
2018-02-18T20:50:06.678Z,23.40
2018-02-18T20:52:34.151Z,25.00
2018-02-18T20:55:01.594Z,22.80
2018-02-18T20:57:29.058Z,21.52
2018-02-18T20:59:56.515Z,21.58
2018-02-18T21:02:24.126Z,21.40
2018-02-18T21:04:51.572Z,20.88
2018-02-18T21:07:19.049Z,19.42
2018-02-18T21:09:46.512Z,18.10
2018-02-18T21:12:14.273Z,17.60
2018-02-18T21:14:41.739Z,19.80
2018-02-18T21:17:09.243Z,21.87
2018-02-18T21:19:36.750Z,18.75
2018-02-18T21:22:04.241Z,18.30
2018-02-18T21:24:31.788Z,18.45
2018-02-18T21:26:59.320Z,21.52
2018-02-18T21:29:26.823Z,19.95
2018-02-18T21:31:54.280Z,18.85
2018-02-18T21:34:21.726Z,18.37
2018-02-18T21:36:49.195Z,20.75
2018-02-18T21:39:16.661Z,18.30
2018-02-18T21:41:44.274Z,18.98
2018-02-18T21:44:11.794Z,19.05
2018-02-18T21:46:39.326Z,20.08
2018-02-18T21:49:06.862Z,20.20
2018-02-18T21:51:34.336Z,19.95
2018-02-18T21:54:01.856Z,17.33
2018-02-18T21:56:29.324Z,17.37
2018-02-18T21:58:56.793Z,18.83
2018-02-18T22:01:24.281Z,17.35
2018-02-18T22:03:51.745Z,18.35
2018-02-18T22:06:19.206Z,17.67
2018-02-18T22:08:46.676Z,17.85
2018-02-18T22:11:14.128Z,18.85
2018-02-18T22:13:41.606Z,15.82
2018-02-18T22:16:09.131Z,17.27
2018-02-18T22:18:36.889Z,17.45
2018-02-18T22:21:04.410Z,17.05
2018-02-18T22:23:31.932Z,16.10
2018-02-18T22:25:59.708Z,17.50
2018-02-18T22:28:27.294Z,16.60
2018-02-18T22:30:54.768Z,17.08
2018-02-18T22:33:22.220Z,18.27
2018-02-18T22:35:52.504Z,15.77
2018-02-18T22:38:19.995Z,15.52
2018-02-18T22:40:47.463Z,14.18
2018-02-18T22:43:15.255Z,14.38
2018-02-18T22:45:42.698Z,14.93
2018-02-18T22:48:10.170Z,15.57
2018-02-18T22:50:37.618Z,14.60
2018-02-18T22:53:05.078Z,13.90
2018-02-18T22:55:32.533Z,14.57
2018-02-18T22:57:59.982Z,14.57
2018-02-18T23:00:27.486Z,12.82
2018-02-18T23:02:55.021Z,15.00
2018-02-18T23:05:28.062Z,13.65
2018-02-18T23:07:55.524Z,12.98
2018-02-18T23:10:22.999Z,15.50
2018-02-18T23:12:50.441Z,15.75
2018-02-18T23:15:17.891Z,15.25
2018-02-18T23:17:45.362Z,15.00
2018-02-18T23:20:12.828Z,13.48
2018-02-18T23:22:40.294Z,15.48
2018-02-18T23:25:07.749Z,13.20
2018-02-18T23:27:35.268Z,13.35
2018-02-18T23:30:03.349Z,13.75
2018-02-18T23:32:30.842Z,12.90
2018-02-18T23:34:58.312Z,13.40
2018-02-18T23:37:25.758Z,13.07
2018-02-18T23:39:53.199Z,13.02
2018-02-18T23:42:20.670Z,12.35
2018-02-18T23:44:48.211Z,13.57
2018-02-18T23:47:15.704Z,14.10
2018-02-18T23:49:43.161Z,13.40
2018-02-18T23:52:10.611Z,11.57
2018-02-18T23:54:38.072Z,13.02
2018-02-18T23:57:05.521Z,12.43
2018-02-18T23:59:32.997Z,12.98
